Summitville, Tennessee
Current Conditions -  °F | °C
As of 5:35 AM on Thursday 27 Nov 2014 (Local Time) from KRNC Reporting Station
Overcast Overcast  
Wind Chill: 31°   Ceiling: 2000
Heat Index: 37°   Visibility: 10mi
Dew Point: 32°   Wind: 8mph
Humidity: 81%   Direction: 320°NW
Pressure: 30.19"   Gusts: NA
Location:  35.56°N, 85.99°W
Report Text: KRNC 271135Z AUTO 32007KT 10SM BKN020 BKN025 OVC055 03/00 A3019 RMK
Loading
Personal Weather Stations






























Interactive Weather Map New forecast layout! Learn more

10-Day Weather Forecast

Advertisements
Track Severe Weather on mobile